createdAt,value
2019-04-10T00:01:34.113Z,67.20
2019-04-10T00:06:39.609Z,68.00
2019-04-10T00:11:45.145Z,67.50
2019-04-10T00:16:50.549Z,67.60
2019-04-10T00:21:55.977Z,68.10
2019-04-10T00:27:02.081Z,68.20
2019-04-10T00:32:07.801Z,68.20
2019-04-10T00:37:22.945Z,68.30
2019-04-10T00:42:21.015Z,68.50
2019-04-10T00:47:26.791Z,68.50
2019-04-10T00:52:32.414Z,68.80
2019-04-10T00:57:37.889Z,69.70
2019-04-10T01:02:43.348Z,69.30
2019-04-10T01:07:48.865Z,69.20
2019-04-10T01:12:54.506Z,69.30
2019-04-10T01:17:59.939Z,69.50
2019-04-10T01:23:07.916Z,69.50
2019-04-10T01:28:14.211Z,69.70
2019-04-10T01:33:20.694Z,69.90
2019-04-10T01:38:27.195Z,70.10
2019-04-10T01:43:32.999Z,70.30
2019-04-10T01:48:38.511Z,70.60
2019-04-10T01:53:44.229Z,70.70
2019-04-10T01:58:50.139Z,70.80
2019-04-10T02:03:55.689Z,71.10
2019-04-10T02:09:01.228Z,71.10
2019-04-10T02:14:07.748Z,71.30
2019-04-10T02:19:14.262Z,71.20
2019-04-10T02:24:19.847Z,71.30
2019-04-10T02:29:25.949Z,71.60
2019-04-10T02:34:32.688Z,71.60
2019-04-10T02:39:44.753Z,71.50
2019-04-10T02:44:45.893Z,71.80
2019-04-10T02:49:52.192Z,71.70
2019-04-10T02:54:57.893Z,71.70
2019-04-10T03:00:05.242Z,71.70
2019-04-10T03:05:10.797Z,71.80
2019-04-10T03:10:25.270Z,71.80
2019-04-10T03:15:25.035Z,71.90
2019-04-10T03:20:32.142Z,72.00
2019-04-10T03:25:37.679Z,72.00
2019-04-10T03:30:44.376Z,72.10
2019-04-10T03:35:52.598Z,72.00
2019-04-10T03:40:58.034Z,72.10
2019-04-10T03:46:03.646Z,72.10
2019-04-10T03:51:09.194Z,72.30
2019-04-10T03:56:15.750Z,72.20
2019-04-10T04:01:21.222Z,72.20
2019-04-10T04:06:26.642Z,72.20
2019-04-10T04:11:32.058Z,72.40
2019-04-10T04:16:37.536Z,72.50
2019-04-10T04:21:43.930Z,72.50
2019-04-10T04:26:50.702Z,72.60
2019-04-10T04:31:56.918Z,72.80
2019-04-10T04:37:02.532Z,72.80
2019-04-10T04:42:07.942Z,72.70
2019-04-10T04:47:13.481Z,72.80
2019-04-10T04:52:19.012Z,72.70
2019-04-10T04:57:24.607Z,72.70
2019-04-10T05:02:30.290Z,72.60
2019-04-10T05:07:35.841Z,72.70
2019-04-10T05:12:43.240Z,72.60
2019-04-10T05:17:49.330Z,72.60
2019-04-10T05:22:55.291Z,72.40
2019-04-10T05:28:01.580Z,72.10
2019-04-10T05:33:08.228Z,71.90
2019-04-10T05:38:13.802Z,71.70
2019-04-10T05:43:19.966Z,71.30
2019-04-10T05:48:26.460Z,70.80
2019-04-10T05:53:32.473Z,70.40
2019-04-10T05:58:38.677Z,69.90
2019-04-10T06:03:45.623Z,69.30
2019-04-10T06:08:51.229Z,68.30
2019-04-10T06:13:56.940Z,67.10
2019-04-10T06:19:02.487Z,66.30
2019-04-10T06:24:07.945Z,64.40
2019-04-10T06:29:13.421Z,59.10
2019-04-10T06:34:18.994Z,56.30
2019-04-10T06:39:24.801Z,51.90
2019-04-10T06:44:30.328Z,48.60
2019-04-10T06:49:36.560Z,46.20
2019-04-10T06:54:42.042Z,43.80
2019-04-10T06:59:48.268Z,41.60
2019-04-10T07:04:56.075Z,37.80
2019-04-10T07:10:02.163Z,36.00
2019-04-10T07:15:08.478Z,34.20
2019-04-10T07:20:17.437Z,32.30
2019-04-10T07:25:21.777Z,33.50
2019-04-10T07:30:28.029Z,33.90
2019-04-10T07:35:35.295Z,33.90
2019-04-10T07:40:40.769Z,30.70
2019-04-10T07:45:46.246Z,29.90
2019-04-10T07:50:51.703Z,30.00
2019-04-10T07:56:05.639Z,29.30
2019-04-10T08:01:05.175Z,28.80
2019-04-10T08:06:11.063Z,29.30
2019-04-10T08:11:17.507Z,28.90
2019-04-10T08:16:23.237Z,26.50
2019-04-10T08:21:29.471Z,24.30
2019-04-10T08:26:35.376Z,24.00
2019-04-10T08:31:40.831Z,24.30
2019-04-10T08:36:46.261Z,24.40
2019-04-10T08:41:52.217Z,26.40
2019-04-10T08:46:58.244Z,26.80
2019-04-10T08:52:04.026Z,25.70
2019-04-10T08:57:10.724Z,24.90
2019-04-10T09:02:17.906Z,24.00
2019-04-10T09:07:24.270Z,21.80
2019-04-10T09:12:31.560Z,19.90
2019-04-10T09:17:37.774Z,20.60
2019-04-10T09:23:07.662Z,21.50
2019-04-10T09:27:51.767Z,19.40
2019-04-10T09:32:57.564Z,18.90
2019-04-10T09:38:04.200Z,17.70
2019-04-10T09:43:09.979Z,17.50
2019-04-10T09:48:16.553Z,19.50
2019-04-10T09:53:22.185Z,20.50
2019-04-10T09:58:27.604Z,22.10
2019-04-10T10:03:33.072Z,24.20
2019-04-10T10:08:39.429Z,26.10
2019-04-10T10:13:45.858Z,27.00
2019-04-10T10:18:51.933Z,27.60
2019-04-10T10:23:58.251Z,29.00
2019-04-10T10:29:05.716Z,30.10
2019-04-10T10:34:12.135Z,31.30
2019-04-10T10:39:20.956Z,32.70
2019-04-10T10:44:26.593Z,33.30
2019-04-10T10:49:32.689Z,32.80
2019-04-10T10:54:38.312Z,32.90
2019-04-10T10:59:43.967Z,33.00
2019-04-10T11:04:49.640Z,33.00
2019-04-10T11:09:56.688Z,32.80
2019-04-10T11:15:03.679Z,32.60
2019-04-10T11:20:10.328Z,32.50
2019-04-10T11:25:15.843Z,33.00
2019-04-10T11:30:22.397Z,33.70
2019-04-10T11:35:29.016Z,33.70
2019-04-10T11:40:34.889Z,33.70
2019-04-10T11:45:45.459Z,33.80
2019-04-10T11:50:48.485Z,33.70
2019-04-10T11:55:56.398Z,33.60
2019-04-10T12:01:02.505Z,33.20
2019-04-10T12:06:08.390Z,33.40
2019-04-10T12:11:17.067Z,33.10
2019-04-10T12:16:21.233Z,33.60
2019-04-10T12:21:26.714Z,33.20
2019-04-10T12:26:32.320Z,33.10
2019-04-10T12:31:37.785Z,33.90
2019-04-10T12:36:43.306Z,34.20
2019-04-10T12:41:49.958Z,34.50
2019-04-10T12:46:55.514Z,34.80
2019-04-10T12:52:00.981Z,34.80
2019-04-10T12:57:06.496Z,35.10
2019-04-10T13:02:13.404Z,35.40
2019-04-10T13:07:19.366Z,35.20
2019-04-10T13:12:25.379Z,35.00
2019-04-10T13:17:31.192Z,35.10
2019-04-10T13:22:36.669Z,35.30
2019-04-10T13:27:43.127Z,35.80
2019-04-10T13:32:50.052Z,36.00
2019-04-10T13:37:55.626Z,36.10
2019-04-10T13:43:01.351Z,35.90
2019-04-10T13:48:08.091Z,36.10
2019-04-10T13:53:13.695Z,36.10
2019-04-10T13:58:19.314Z,36.20
2019-04-10T14:03:25.923Z,36.40
2019-04-10T14:08:42.341Z,36.50
2019-04-10T14:13:39.811Z,36.30
2019-04-10T14:18:45.791Z,36.60
2019-04-10T14:23:51.467Z,36.50
2019-04-10T14:28:57.621Z,36.10
2019-04-10T14:34:06.564Z,36.00
2019-04-10T14:39:19.577Z,35.90
2019-04-10T14:44:23.381Z,35.50
2019-04-10T14:49:29.334Z,36.00
2019-04-10T14:54:35.701Z,36.30
2019-04-10T14:59:42.210Z,36.40
2019-04-10T15:04:48.998Z,36.50
2019-04-10T15:09:54.513Z,36.60
2019-04-10T15:15:00.143Z,36.10
2019-04-10T15:20:05.624Z,36.20
2019-04-10T15:25:11.144Z,36.40
2019-04-10T15:30:16.634Z,36.10
2019-04-10T15:35:22.310Z,36.10
2019-04-10T15:40:28.862Z,36.20
2019-04-10T15:45:34.401Z,36.30
2019-04-10T15:50:40.255Z,36.70
2019-04-10T15:55:47.583Z,37.50
2019-04-10T16:00:53.790Z,37.10
2019-04-10T16:05:59.388Z,37.10
2019-04-10T16:11:33.882Z,37.30
2019-04-10T16:17:07.088Z,37.70
2019-04-10T16:22:37.458Z,37.80
2019-04-10T16:27:43.350Z,37.40
2019-04-10T16:32:50.098Z,38.20
2019-04-10T16:37:55.949Z,38.00
2019-04-10T16:43:01.570Z,38.30
2019-04-10T16:48:07.100Z,38.10
2019-04-10T16:53:13.770Z,38.30
2019-04-10T16:58:20.040Z,38.60
2019-04-10T17:03:25.622Z,38.80
2019-04-10T17:08:32.203Z,38.90
2019-04-10T17:13:38.505Z,39.00
2019-04-10T17:18:45.259Z,39.00
2019-04-10T17:23:51.149Z,39.30
2019-04-10T17:28:56.819Z,39.60
2019-04-10T17:34:02.818Z,39.70
2019-04-10T17:39:16.121Z,40.00
2019-04-10T17:44:21.381Z,40.20
2019-04-10T17:49:27.674Z,40.50
2019-04-10T17:54:34.557Z,40.70
2019-04-10T17:59:44.798Z,41.00
2019-04-10T18:04:50.518Z,41.30
2019-04-10T18:09:56.755Z,41.60
2019-04-10T18:15:02.388Z,41.90
2019-04-10T18:20:10.452Z,42.10
2019-04-10T18:25:15.959Z,42.40
2019-04-10T18:30:21.707Z,42.90
2019-04-10T18:35:27.323Z,43.20
2019-04-10T18:40:46.998Z,43.70
2019-04-10T18:45:58.397Z,44.00
2019-04-10T18:50:55.776Z,44.10
2019-04-10T18:56:01.266Z,44.30
2019-04-10T19:01:15.829Z,44.20
2019-04-10T19:06:32.280Z,44.40
2019-04-10T19:11:38.431Z,44.70
2019-04-10T19:16:45.718Z,44.80
2019-04-10T19:21:51.500Z,45.10
2019-04-10T19:26:57.886Z,45.20
2019-04-10T19:32:05.681Z,45.60
2019-04-10T19:37:12.273Z,45.80
2019-04-10T19:42:17.790Z,45.90
2019-04-10T19:47:23.782Z,46.20
2019-04-10T19:52:30.698Z,46.30
2019-04-10T19:57:37.419Z,46.40
2019-04-10T20:02:43.608Z,46.70
2019-04-10T20:07:49.267Z,46.90
2019-04-10T20:12:55.179Z,47.00
2019-04-10T20:18:00.672Z,47.10
2019-04-10T20:23:06.824Z,47.40
2019-04-10T20:28:12.469Z,47.50
2019-04-10T20:33:18.722Z,47.60
2019-04-10T20:38:25.186Z,47.70
2019-04-10T20:43:31.066Z,47.80
2019-04-10T20:48:38.358Z,47.80
2019-04-10T20:53:44.274Z,48.00
2019-04-10T20:58:50.519Z,48.20
2019-04-10T21:03:56.685Z,48.10
2019-04-10T21:09:03.131Z,48.40
2019-04-10T21:14:09.233Z,48.60
2019-04-10T21:19:14.865Z,48.60
2019-04-10T21:24:20.998Z,48.70
2019-04-10T21:29:44.235Z,48.90
2019-04-10T21:34:49.881Z,49.00
2019-04-10T21:39:56.249Z,49.30
2019-04-10T21:45:01.893Z,49.40
2019-04-10T21:50:08.854Z,49.50
2019-04-10T21:55:15.020Z,49.80
2019-04-10T22:00:26.665Z,49.70
2019-04-10T22:05:33.312Z,50.00
2019-04-10T22:10:44.022Z,50.10
2019-04-10T22:15:49.603Z,50.20
2019-04-10T22:20:57.068Z,50.40
2019-04-10T22:26:02.395Z,51.30
2019-04-10T22:31:08.047Z,50.80
2019-04-10T22:36:13.546Z,50.80
2019-04-10T22:41:26.955Z,51.10
2019-04-10T22:46:26.174Z,51.10
2019-04-10T22:51:31.598Z,51.20
2019-04-10T22:56:37.807Z,51.10
2019-04-10T23:01:43.443Z,51.30
2019-04-10T23:06:49.333Z,51.30
2019-04-10T23:11:56.057Z,51.60
2019-04-10T23:17:02.232Z,51.60
2019-04-10T23:22:07.861Z,51.80
2019-04-10T23:27:13.521Z,51.90
2019-04-10T23:32:19.433Z,52.00
2019-04-10T23:37:25.277Z,52.10
2019-04-10T23:42:30.694Z,52.40
2019-04-10T23:47:36.168Z,52.50
2019-04-10T23:52:42.238Z,52.70
2019-04-10T23:57:47.686Z,53.00
